createdAt,value
2023-06-09T00:00:36.163Z,6.90
2023-06-09T00:02:37.902Z,7.20
2023-06-09T00:04:39.583Z,7.33
2023-06-09T00:06:41.462Z,7.40
2023-06-09T00:08:43.228Z,8.77
2023-06-09T00:10:44.899Z,9.27
2023-06-09T00:12:47.892Z,8.93
2023-06-09T00:14:49.541Z,8.60
2023-06-09T00:16:53.858Z,8.63
2023-06-09T00:18:56.021Z,7.77
2023-06-09T00:20:57.705Z,9.60
2023-06-09T00:22:59.346Z,8.93
2023-06-09T00:25:01.032Z,9.33
2023-06-09T00:27:02.791Z,9.07
2023-06-09T00:29:05.860Z,9.47
2023-06-09T00:31:09.641Z,10.00
2023-06-09T00:33:11.306Z,9.03
2023-06-09T00:35:13.056Z,8.87
2023-06-09T00:37:14.677Z,9.10
2023-06-09T00:39:16.336Z,10.33
2023-06-09T00:41:18.416Z,10.00
2023-06-09T00:43:27.428Z,8.77
2023-06-09T00:45:30.514Z,10.30
2023-06-09T00:47:32.669Z,11.27
2023-06-09T00:49:34.886Z,9.77
2023-06-09T00:51:41.200Z,11.93
2023-06-09T00:53:43.063Z,11.23
2023-06-09T00:55:44.747Z,10.70
2023-06-09T00:57:48.646Z,11.50
2023-06-09T00:59:50.270Z,9.53
2023-06-09T01:01:53.860Z,11.00
2023-06-09T01:03:55.997Z,9.90
2023-06-09T01:06:08.537Z,9.47
2023-06-09T01:08:20.001Z,9.97
2023-06-09T01:10:30.439Z,10.47
2023-06-09T01:12:50.645Z,9.77
2023-06-09T01:14:57.311Z,10.70
2023-06-09T01:17:08.176Z,10.47
2023-06-09T01:19:20.403Z,10.20
2023-06-09T01:21:27.491Z,11.43
2023-06-09T01:23:38.458Z,9.90
2023-06-09T01:25:44.695Z,11.23
2023-06-09T01:27:57.114Z,10.17
2023-06-09T01:29:59.670Z,11.83
2023-06-09T01:32:03.673Z,11.00
2023-06-09T01:34:07.958Z,11.57
2023-06-09T01:36:10.767Z,12.47
2023-06-09T01:38:13.088Z,11.90
2023-06-09T01:40:15.128Z,10.57
2023-06-09T01:42:18.343Z,11.40
2023-06-09T01:44:20.129Z,10.67
2023-06-09T01:46:22.123Z,10.37
2023-06-09T01:48:32.476Z,12.40
2023-06-09T01:50:42.031Z,10.57
2023-06-09T01:52:50.238Z,12.00
2023-06-09T01:54:56.625Z,12.27
2023-06-09T01:57:09.020Z,13.37
2023-06-09T01:59:16.767Z,10.93
2023-06-09T02:01:20.863Z,10.33
2023-06-09T02:03:29.304Z,11.00
2023-06-09T02:05:31.837Z,11.50
2023-06-09T02:07:35.240Z,10.17
2023-06-09T02:09:37.094Z,10.40
2023-06-09T02:11:38.817Z,9.27
2023-06-09T02:13:40.566Z,10.97
2023-06-09T02:15:45.440Z,10.37
2023-06-09T02:17:47.481Z,10.40
2023-06-09T02:19:49.253Z,10.63
2023-06-09T02:21:50.854Z,10.37
2023-06-09T02:23:52.358Z,10.17
2023-06-09T02:25:54.212Z,11.30
2023-06-09T02:27:55.841Z,10.07
2023-06-09T02:29:57.837Z,10.70
2023-06-09T02:32:01.439Z,10.50
2023-06-09T02:34:03.290Z,11.10
2023-06-09T02:36:07.681Z,10.63
2023-06-09T02:38:09.439Z,10.93
2023-06-09T02:40:11.833Z,11.20
2023-06-09T02:42:13.494Z,11.27
2023-06-09T02:44:26.443Z,12.23
2023-06-09T02:46:28.098Z,10.80
2023-06-09T02:48:34.696Z,11.73
2023-06-09T02:50:36.371Z,11.17
2023-06-09T02:52:38.112Z,10.70
2023-06-09T02:54:39.843Z,11.20
2023-06-09T02:56:41.530Z,11.37
2023-06-09T02:58:43.170Z,11.37
2023-06-09T03:00:44.898Z,11.43
2023-06-09T03:02:46.684Z,11.57
2023-06-09T03:04:50.152Z,12.27
2023-06-09T03:06:51.822Z,11.73
2023-06-09T03:08:53.446Z,11.70
2023-06-09T03:10:55.167Z,11.70
2023-06-09T03:12:56.839Z,13.37
2023-06-09T03:14:58.630Z,10.90
2023-06-09T03:17:02.665Z,13.20
2023-06-09T03:19:04.372Z,10.67
2023-06-09T03:21:07.369Z,11.10
2023-06-09T03:23:09.257Z,11.37
2023-06-09T03:25:10.873Z,10.90
2023-06-09T03:27:12.756Z,11.20
2023-06-09T03:29:14.460Z,13.67
2023-06-09T03:31:16.164Z,12.83
2023-06-09T03:33:17.992Z,12.30
2023-06-09T03:35:19.686Z,12.80
2023-06-09T03:37:25.669Z,11.53
2023-06-09T03:39:27.464Z,11.30
2023-06-09T03:41:29.340Z,11.73
2023-06-09T03:43:31.074Z,12.97
2023-06-09T03:45:32.746Z,11.73
2023-06-09T03:47:34.499Z,13.97
2023-06-09T03:49:36.293Z,11.53
2023-06-09T03:51:40.738Z,11.10
2023-06-09T03:53:43.768Z,12.17
2023-06-09T03:55:45.656Z,11.77
2023-06-09T03:57:47.296Z,12.00
2023-06-09T03:59:49.067Z,11.97
2023-06-09T04:01:50.953Z,12.60
2023-06-09T04:03:52.822Z,12.03
2023-06-09T04:05:54.673Z,14.33
2023-06-09T04:07:56.400Z,15.40
2023-06-09T04:09:59.609Z,14.17
2023-06-09T04:12:01.495Z,11.97
2023-06-09T04:14:03.217Z,12.77
2023-06-09T04:16:07.407Z,14.50
2023-06-09T04:18:09.876Z,13.10
2023-06-09T04:20:12.094Z,13.43
2023-06-09T04:22:13.768Z,14.73
2023-06-09T04:24:15.560Z,14.00
2023-06-09T04:26:18.638Z,12.40
2023-06-09T04:28:20.361Z,14.53
2023-06-09T04:30:22.592Z,14.80
2023-06-09T04:32:24.496Z,13.77
2023-06-09T04:34:29.312Z,12.80
2023-06-09T04:36:30.978Z,14.23
2023-06-09T04:38:33.394Z,15.10
2023-06-09T04:40:35.113Z,13.20
2023-06-09T04:42:40.943Z,14.00
2023-06-09T04:44:44.778Z,14.67
2023-06-09T04:46:49.442Z,13.30
2023-06-09T04:48:51.173Z,13.07
2023-06-09T04:50:58.518Z,13.23
2023-06-09T04:53:02.795Z,15.20
2023-06-09T04:55:05.211Z,12.90
2023-06-09T04:57:09.452Z,12.50
2023-06-09T04:59:12.673Z,13.43
2023-06-09T05:01:14.440Z,12.50
2023-06-09T05:03:16.414Z,13.00
2023-06-09T05:05:18.299Z,12.63
2023-06-09T05:07:19.950Z,16.07
2023-06-09T05:09:24.367Z,12.60
2023-06-09T05:11:26.216Z,13.70
2023-06-09T05:13:27.839Z,13.77
2023-06-09T05:15:30.951Z,14.80
2023-06-09T05:17:33.317Z,13.73
2023-06-09T05:19:37.901Z,14.07
2023-06-09T05:21:39.554Z,13.83
2023-06-09T05:23:44.212Z,13.50
2023-06-09T05:25:47.719Z,12.93
2023-06-09T05:27:49.505Z,13.23
2023-06-09T05:29:51.075Z,13.90
2023-06-09T05:31:57.122Z,12.80
2023-06-09T05:33:58.812Z,13.30
2023-06-09T05:36:00.492Z,13.13
2023-06-09T05:38:02.114Z,13.50
2023-06-09T05:40:08.646Z,12.80
2023-06-09T05:42:11.743Z,9.80
2023-06-09T05:44:17.845Z,11.93
2023-06-09T05:46:19.523Z,12.83
2023-06-09T05:48:24.765Z,12.20
2023-06-09T05:50:26.458Z,11.67
2023-06-09T05:52:30.831Z,12.27
2023-06-09T05:54:32.884Z,9.80
2023-06-09T05:56:34.532Z,11.70
2023-06-09T05:58:38.866Z,11.70
2023-06-09T06:00:40.537Z,12.17
2023-06-09T06:02:42.474Z,10.93
2023-06-09T06:04:45.868Z,12.40
2023-06-09T06:06:47.689Z,11.20
2023-06-09T06:08:49.387Z,10.90
2023-06-09T06:10:51.907Z,11.73
2023-06-09T06:12:53.689Z,10.03
2023-06-09T06:14:55.331Z,10.60
2023-06-09T06:16:56.915Z,9.83
2023-06-09T06:18:58.610Z,11.37
2023-06-09T06:21:01.950Z,11.67
2023-06-09T06:23:06.239Z,10.97
2023-06-09T06:25:14.276Z,9.67
2023-06-09T06:27:19.421Z,11.00
2023-06-09T06:29:21.212Z,9.60
2023-06-09T06:31:23.249Z,10.90
2023-06-09T06:33:27.081Z,11.23
2023-06-09T06:35:30.002Z,10.10
2023-06-09T06:37:33.060Z,10.80
2023-06-09T06:39:34.894Z,9.93
2023-06-09T06:41:36.656Z,11.03
2023-06-09T06:43:38.377Z,10.13
2023-06-09T06:45:40.043Z,10.17
2023-06-09T06:47:41.935Z,9.60
2023-06-09T06:49:43.778Z,9.60
2023-06-09T06:51:45.545Z,8.97
2023-06-09T06:53:48.757Z,9.60
2023-06-09T06:55:50.824Z,10.30
2023-06-09T06:57:59.813Z,10.10
2023-06-09T07:00:04.168Z,9.03
2023-06-09T07:02:09.332Z,8.70
2023-06-09T07:04:13.490Z,9.70
2023-06-09T07:06:15.285Z,9.67
2023-06-09T07:08:17.068Z,9.57
2023-06-09T07:10:25.048Z,10.20
2023-06-09T07:12:26.867Z,9.03
2023-06-09T07:14:29.651Z,9.10
2023-06-09T07:16:31.259Z,7.33
2023-06-09T07:18:33.102Z,8.83
2023-06-09T07:20:34.883Z,7.07
2023-06-09T07:22:40.143Z,7.10
2023-06-09T07:24:41.806Z,6.80
2023-06-09T07:26:44.956Z,6.83
2023-06-09T07:28:46.960Z,7.00
2023-06-09T07:30:48.731Z,7.30
2023-06-09T07:32:54.866Z,6.50
2023-06-09T07:34:56.660Z,8.50
2023-06-09T07:36:58.411Z,9.20
2023-06-09T07:39:00.125Z,7.57
2023-06-09T07:41:01.849Z,9.17
2023-06-09T07:43:05.114Z,7.20
2023-06-09T07:45:08.859Z,8.90
2023-06-09T07:47:10.554Z,7.50
2023-06-09T07:49:12.449Z,7.67
2023-06-09T07:51:14.779Z,8.70
2023-06-09T07:53:16.613Z,8.90
2023-06-09T07:55:27.489Z,8.60
2023-06-09T07:57:29.388Z,8.30
2023-06-09T07:59:33.280Z,8.40
2023-06-09T08:01:35.536Z,9.07
2023-06-09T08:03:42.322Z,7.47
2023-06-09T08:05:45.333Z,8.10
2023-06-09T08:07:48.479Z,10.17
2023-06-09T08:09:50.800Z,8.67
2023-06-09T08:11:54.188Z,9.70
2023-06-09T08:13:56.000Z,8.87
2023-06-09T08:15:59.639Z,9.70
2023-06-09T08:18:06.723Z,10.27
2023-06-09T08:20:09.222Z,8.67
2023-06-09T08:22:11.157Z,9.77
2023-06-09T08:24:14.142Z,9.03
2023-06-09T08:26:16.062Z,10.60
2023-06-09T08:28:19.389Z,9.63
2023-06-09T08:30:24.267Z,9.50
2023-06-09T08:32:27.594Z,9.10
2023-06-09T08:34:35.955Z,8.83
2023-06-09T08:36:37.729Z,8.30
2023-06-09T08:38:48.859Z,9.17
2023-06-09T08:40:52.542Z,7.87
2023-06-09T08:42:56.594Z,8.67
2023-06-09T08:45:02.655Z,8.70
2023-06-09T08:47:07.424Z,8.73
2023-06-09T08:49:11.909Z,7.73
2023-06-09T08:51:13.973Z,8.00
2023-06-09T08:53:17.391Z,7.20
2023-06-09T08:55:19.528Z,7.83
2023-06-09T08:57:21.725Z,7.90
2023-06-09T08:59:24.300Z,7.10
2023-06-09T09:01:29.204Z,7.40
2023-06-09T09:03:31.023Z,6.47
2023-06-09T09:05:34.743Z,7.50
2023-06-09T09:07:36.751Z,6.80
2023-06-09T09:09:38.403Z,7.43
2023-06-09T09:11:40.105Z,7.50
2023-06-09T09:13:41.791Z,7.60
2023-06-09T09:15:50.342Z,8.07
2023-06-09T09:17:52.114Z,7.60
2023-06-09T09:19:55.212Z,8.03
2023-06-09T09:22:02.677Z,8.57
2023-06-09T09:24:05.582Z,6.70
2023-06-09T09:26:10.483Z,6.20
2023-06-09T09:28:13.121Z,5.90
2023-06-09T09:30:15.106Z,7.03
2023-06-09T09:32:16.892Z,6.00
2023-06-09T09:34:20.541Z,6.77
2023-06-09T09:36:22.374Z,6.20
2023-06-09T09:38:26.927Z,6.17
2023-06-09T09:40:28.536Z,7.40
2023-06-09T09:42:32.131Z,6.50
2023-06-09T09:44:40.748Z,7.70
2023-06-09T09:46:44.150Z,8.07
2023-06-09T09:48:45.857Z,6.70
2023-06-09T09:50:48.675Z,6.30
2023-06-09T09:52:51.757Z,6.60
2023-06-09T09:54:56.100Z,6.80
2023-06-09T09:56:59.882Z,7.10
2023-06-09T09:59:01.613Z,6.60
2023-06-09T10:01:05.479Z,5.70
2023-06-09T10:03:09.841Z,6.53
2023-06-09T10:05:11.788Z,6.43
2023-06-09T10:07:15.748Z,5.43
2023-06-09T10:09:17.633Z,8.47
2023-06-09T10:11:22.074Z,6.73
2023-06-09T10:13:26.406Z,6.50
2023-06-09T10:15:28.117Z,6.40
2023-06-09T10:17:30.532Z,6.37
2023-06-09T10:19:32.376Z,6.57
2023-06-09T10:21:34.617Z,5.47
2023-06-09T10:23:36.572Z,6.73
2023-06-09T10:25:38.503Z,6.20
2023-06-09T10:27:42.078Z,5.40
2023-06-09T10:29:43.971Z,4.53
2023-06-09T10:31:48.137Z,4.80
2023-06-09T10:33:51.232Z,5.50
2023-06-09T10:35:58.352Z,5.10
2023-06-09T10:38:20.707Z,4.77
2023-06-09T10:40:30.080Z,5.50
2023-06-09T10:42:40.697Z,5.20
2023-06-09T10:44:54.243Z,4.90
2023-06-09T10:46:56.813Z,5.20
2023-06-09T10:48:59.723Z,4.53
2023-06-09T10:51:35.267Z,4.70
2023-06-09T10:53:37.034Z,4.60
2023-06-09T10:55:38.737Z,4.90
2023-06-09T10:57:40.584Z,5.57
2023-06-09T10:59:58.509Z,5.20
2023-06-09T11:02:21.787Z,4.63
2023-06-09T11:04:48.759Z,4.83
2023-06-09T11:07:11.848Z,4.53
2023-06-09T11:09:13.683Z,5.23
2023-06-09T11:11:16.129Z,4.63
2023-06-09T11:13:39.256Z,4.67
2023-06-09T11:16:01.517Z,5.30
2023-06-09T11:18:17.279Z,5.03
2023-06-09T11:20:20.716Z,5.53
2023-06-09T11:22:22.468Z,5.70
2023-06-09T11:24:24.315Z,5.27
2023-06-09T11:26:26.390Z,5.50
2023-06-09T11:28:28.270Z,5.60
2023-06-09T11:30:31.252Z,5.73
2023-06-09T11:32:47.730Z,6.50
2023-06-09T11:34:50.738Z,5.90
2023-06-09T11:36:52.776Z,5.17
2023-06-09T11:39:00.318Z,6.03
2023-06-09T11:41:02.609Z,5.83
2023-06-09T11:43:08.701Z,6.70
2023-06-09T11:45:11.098Z,5.77
2023-06-09T11:47:29.554Z,6.20
2023-06-09T11:49:34.334Z,5.47
2023-06-09T11:52:01.240Z,6.30
2023-06-09T11:54:02.953Z,5.70
2023-06-09T11:56:04.929Z,6.43
2023-06-09T11:58:08.038Z,6.30
2023-06-09T12:00:11.802Z,6.40
2023-06-09T12:02:13.988Z,5.27
2023-06-09T12:04:15.887Z,5.77
2023-06-09T12:06:19.196Z,5.40
2023-06-09T12:08:21.146Z,5.70
2023-06-09T12:10:24.711Z,5.27
2023-06-09T12:12:26.447Z,5.93
2023-06-09T12:14:28.341Z,6.10
2023-06-09T12:16:30.104Z,5.80
2023-06-09T12:18:31.932Z,6.33
2023-06-09T12:20:35.059Z,5.47
2023-06-09T12:22:43.022Z,5.40
2023-06-09T12:24:45.243Z,5.70
2023-06-09T12:26:47.206Z,5.80
2023-06-09T12:28:54.049Z,5.40
2023-06-09T12:30:56.610Z,5.50
2023-06-09T12:32:58.563Z,5.20
2023-06-09T12:35:01.544Z,5.80
2023-06-09T12:37:05.884Z,5.40
2023-06-09T12:39:19.181Z,5.57
2023-06-09T12:41:21.158Z,5.90
2023-06-09T12:43:24.382Z,5.10
2023-06-09T12:45:27.453Z,5.67
2023-06-09T12:47:30.427Z,5.50
2023-06-09T12:49:35.346Z,5.80
2023-06-09T12:51:43.417Z,5.87
2023-06-09T12:53:45.612Z,6.23
2023-06-09T12:55:48.973Z,6.77
2023-06-09T12:57:50.783Z,6.13
2023-06-09T12:59:52.501Z,5.90
2023-06-09T13:01:54.343Z,6.00
2023-06-09T13:03:56.192Z,5.90
2023-06-09T13:05:57.914Z,6.03
2023-06-09T13:08:00.077Z,6.03
2023-06-09T13:10:01.957Z,5.90
2023-06-09T13:12:05.641Z,6.23
2023-06-09T13:14:07.287Z,5.90
2023-06-09T13:16:09.430Z,6.00
2023-06-09T13:18:11.252Z,5.30
2023-06-09T13:20:14.962Z,5.27
2023-06-09T13:22:16.602Z,5.87
2023-06-09T13:24:18.401Z,6.13
2023-06-09T13:26:20.230Z,6.07
2023-06-09T13:28:26.035Z,5.83
2023-06-09T13:30:29.698Z,6.13
2023-06-09T13:32:31.378Z,5.60
2023-06-09T13:34:33.145Z,5.90
2023-06-09T13:36:34.946Z,6.70
2023-06-09T13:38:36.719Z,5.60
2023-06-09T13:40:38.401Z,5.40
2023-06-09T13:42:40.140Z,7.43
2023-06-09T13:44:43.207Z,5.80
2023-06-09T13:46:45.076Z,6.17
2023-06-09T13:48:47.144Z,5.20
2023-06-09T13:50:49.085Z,6.50
2023-06-09T13:52:51.208Z,6.03
2023-06-09T13:54:56.062Z,6.20
2023-06-09T13:56:57.712Z,7.67
2023-06-09T13:58:59.533Z,7.40
2023-06-09T14:01:09.302Z,6.73
2023-06-09T14:03:11.240Z,6.87
2023-06-09T14:05:13.875Z,6.27
2023-06-09T14:07:15.906Z,6.33
2023-06-09T14:09:17.569Z,7.30
2023-06-09T14:11:22.927Z,6.93
2023-06-09T14:13:25.344Z,5.80
2023-06-09T14:15:29.850Z,6.77
2023-06-09T14:17:33.980Z,6.20
2023-06-09T14:19:35.832Z,5.90
2023-06-09T14:21:37.564Z,6.77
2023-06-09T14:23:39.379Z,6.70
2023-06-09T14:25:41.206Z,6.30
2023-06-09T14:27:42.868Z,5.93
2023-06-09T14:29:44.568Z,6.50
2023-06-09T14:31:46.592Z,6.10
2023-06-09T14:33:52.096Z,6.70
2023-06-09T14:35:53.864Z,6.83
2023-06-09T14:37:57.672Z,7.13
2023-06-09T14:39:59.411Z,5.90
2023-06-09T14:42:01.624Z,5.50
2023-06-09T14:44:03.561Z,6.27
2023-06-09T14:46:05.542Z,6.63
2023-06-09T14:48:10.174Z,7.20
2023-06-09T14:50:13.808Z,7.27
2023-06-09T14:52:15.620Z,7.20
2023-06-09T14:54:17.637Z,7.03
2023-06-09T14:56:19.284Z,7.07
2023-06-09T14:58:21.316Z,7.10
2023-06-09T15:00:25.189Z,6.27
2023-06-09T15:02:26.885Z,6.07
2023-06-09T15:04:28.532Z,6.87
2023-06-09T15:06:31.694Z,7.20
2023-06-09T15:08:33.574Z,6.80
2023-06-09T15:10:39.224Z,7.27
2023-06-09T15:12:42.558Z,6.53
2023-06-09T15:14:44.409Z,7.33
2023-06-09T15:16:46.139Z,6.57
2023-06-09T15:18:47.808Z,6.60
2023-06-09T15:20:49.683Z,7.60
2023-06-09T15:22:56.751Z,6.80
2023-06-09T15:24:58.607Z,6.63
2023-06-09T15:27:00.334Z,6.30
2023-06-09T15:29:02.025Z,6.43
2023-06-09T15:31:03.872Z,6.87
2023-06-09T15:33:07.705Z,7.50
2023-06-09T15:35:09.897Z,7.27
2023-06-09T15:37:11.883Z,6.80
2023-06-09T15:39:15.260Z,6.70
2023-06-09T15:41:17.719Z,6.60
2023-06-09T15:43:21.620Z,6.80
2023-06-09T15:45:23.438Z,6.87
2023-06-09T15:47:25.386Z,7.03
2023-06-09T15:49:27.107Z,6.83
2023-06-09T15:51:30.508Z,7.20
2023-06-09T15:53:32.422Z,7.47
2023-06-09T15:55:36.074Z,7.27
2023-06-09T15:57:38.463Z,6.73
2023-06-09T15:59:40.100Z,5.97
2023-06-09T16:01:41.869Z,7.10
2023-06-09T16:03:43.889Z,7.40
2023-06-09T16:05:45.739Z,6.80
2023-06-09T16:07:47.416Z,6.93
2023-06-09T16:09:49.372Z,6.73
2023-06-09T16:11:57.336Z,6.17
2023-06-09T16:13:58.987Z,6.30
2023-06-09T16:16:00.680Z,7.20
2023-06-09T16:18:02.641Z,6.03
2023-06-09T16:20:05.444Z,7.30
2023-06-09T16:22:07.296Z,7.87
2023-06-09T16:24:12.081Z,7.07
2023-06-09T16:26:13.751Z,6.97
2023-06-09T16:28:17.086Z,6.93
2023-06-09T16:30:18.888Z,7.53
2023-06-09T16:32:20.591Z,6.57
2023-06-09T16:34:22.209Z,6.90
2023-06-09T16:36:24.028Z,6.87
2023-06-09T16:38:25.817Z,7.90
2023-06-09T16:40:27.694Z,7.10
2023-06-09T16:42:30.041Z,7.87
2023-06-09T16:44:33.086Z,6.60
2023-06-09T16:46:34.904Z,7.40
2023-06-09T16:48:38.684Z,6.60
2023-06-09T16:50:41.338Z,7.20
2023-06-09T16:52:42.965Z,6.30
2023-06-09T16:54:44.830Z,7.00
2023-06-09T16:56:46.571Z,6.80
2023-06-09T16:58:48.222Z,6.60
2023-06-09T17:00:51.522Z,6.90
2023-06-09T17:02:55.883Z,8.40
2023-06-09T17:04:58.376Z,7.27
2023-06-09T17:07:01.238Z,6.90
2023-06-09T17:09:04.420Z,6.93
2023-06-09T17:11:06.292Z,7.87
2023-06-09T17:13:10.227Z,7.00
2023-06-09T17:15:11.976Z,6.67
2023-06-09T17:17:15.278Z,8.17
2023-06-09T17:19:17.094Z,8.20
2023-06-09T17:21:18.802Z,8.47
2023-06-09T17:23:20.479Z,8.80
2023-06-09T17:25:22.167Z,11.10
2023-06-09T17:27:24.017Z,9.37
2023-06-09T17:29:26.194Z,9.40
2023-06-09T17:31:27.812Z,9.80
2023-06-09T17:33:31.092Z,11.87
2023-06-09T17:35:32.832Z,9.90
2023-06-09T17:37:34.511Z,10.50
2023-06-09T17:39:36.209Z,11.40
2023-06-09T17:41:37.862Z,10.60
2023-06-09T17:43:39.567Z,9.87
2023-06-09T17:45:44.102Z,9.90
2023-06-09T17:47:45.819Z,9.33
2023-06-09T17:49:48.983Z,11.90
2023-06-09T17:51:50.706Z,10.30
2023-06-09T17:53:52.438Z,11.30
2023-06-09T17:55:54.120Z,11.00
2023-06-09T17:57:56.109Z,10.00
2023-06-09T17:59:57.900Z,9.53
2023-06-09T18:01:59.533Z,9.67
2023-06-09T18:04:02.072Z,10.03
2023-06-09T18:06:05.249Z,9.20
2023-06-09T18:08:07.002Z,9.83
2023-06-09T18:10:09.351Z,10.60
2023-06-09T18:12:11.612Z,9.77
2023-06-09T18:14:13.253Z,8.93
2023-06-09T18:16:17.655Z,9.40
2023-06-09T18:18:19.371Z,9.27
2023-06-09T18:20:21.276Z,8.03
2023-06-09T18:22:24.443Z,8.50
2023-06-09T18:24:26.130Z,8.50
2023-06-09T18:26:27.806Z,9.57
2023-06-09T18:28:29.795Z,8.40
2023-06-09T18:30:31.583Z,9.80
2023-06-09T18:32:33.589Z,8.87
2023-06-09T18:34:35.361Z,9.50
2023-06-09T18:36:37.016Z,9.10
2023-06-09T18:38:39.993Z,8.60
2023-06-09T18:40:41.809Z,9.30
2023-06-09T18:42:43.474Z,9.60
2023-06-09T18:44:45.278Z,10.10
2023-06-09T18:46:47.676Z,9.30
2023-06-09T18:49:00.444Z,10.90
2023-06-09T18:51:03.611Z,9.90
2023-06-09T18:53:08.342Z,10.00
2023-06-09T18:55:11.623Z,9.70
2023-06-09T18:57:13.520Z,9.47
2023-06-09T18:59:15.279Z,9.30
2023-06-09T19:01:18.377Z,11.87
2023-06-09T19:03:20.262Z,17.00
2023-06-09T19:05:22.305Z,10.83
2023-06-09T19:07:23.972Z,11.10
2023-06-09T19:09:25.716Z,9.47
2023-06-09T19:11:29.094Z,11.67
2023-06-09T19:13:30.806Z,10.63
2023-06-09T19:15:32.519Z,11.03
2023-06-09T19:17:34.301Z,13.20
2023-06-09T19:19:36.049Z,12.57
2023-06-09T19:21:37.994Z,10.70
2023-06-09T19:23:41.898Z,12.03
2023-06-09T19:25:43.660Z,11.37
2023-06-09T19:27:46.647Z,9.40
2023-06-09T19:29:48.309Z,9.90
2023-06-09T19:31:50.045Z,9.57
2023-06-09T19:33:51.672Z,10.70
2023-06-09T19:35:53.480Z,11.20
2023-06-09T19:37:59.958Z,10.70
2023-06-09T19:40:02.160Z,11.00
2023-06-09T19:42:04.467Z,10.60
2023-06-09T19:44:10.230Z,10.07
2023-06-09T19:46:12.000Z,10.30
2023-06-09T19:48:14.018Z,10.37
2023-06-09T19:50:15.832Z,12.63
2023-06-09T19:52:17.478Z,10.70
2023-06-09T19:54:19.205Z,10.23
2023-06-09T19:56:23.658Z,10.77
2023-06-09T19:58:25.502Z,9.53
2023-06-09T20:00:28.726Z,9.77
2023-06-09T20:02:30.735Z,9.37
2023-06-09T20:04:32.562Z,10.40
2023-06-09T20:06:34.543Z,10.43
2023-06-09T20:08:36.308Z,12.27
2023-06-09T20:10:40.784Z,10.10
2023-06-09T20:12:45.500Z,11.40
2023-06-09T20:14:47.160Z,11.57
2023-06-09T20:16:50.269Z,10.67
2023-06-09T20:18:52.007Z,11.20
2023-06-09T20:20:53.886Z,11.67
2023-06-09T20:22:55.593Z,12.20
2023-06-09T20:24:57.378Z,11.43
2023-06-09T20:26:59.071Z,11.20
2023-06-09T20:29:00.884Z,12.43
2023-06-09T20:31:03.156Z,11.37
2023-06-09T20:33:06.346Z,13.40
2023-06-09T20:35:11.633Z,13.50
2023-06-09T20:37:13.506Z,13.70
2023-06-09T20:39:15.390Z,14.80
2023-06-09T20:41:16.963Z,14.90
2023-06-09T20:43:18.712Z,15.63
2023-06-09T20:45:20.649Z,14.00
2023-06-09T20:47:22.306Z,14.73
2023-06-09T20:49:28.513Z,14.30
2023-06-09T20:51:30.370Z,14.43
2023-06-09T20:53:32.027Z,13.60
2023-06-09T20:55:39.431Z,13.40
2023-06-09T20:57:42.527Z,11.90
2023-06-09T20:59:44.194Z,11.47
2023-06-09T21:01:46.025Z,12.10
2023-06-09T21:03:47.886Z,11.33
2023-06-09T21:05:51.095Z,10.90
2023-06-09T21:07:56.197Z,11.80
2023-06-09T21:09:57.905Z,11.30
2023-06-09T21:11:59.520Z,10.60
2023-06-09T21:14:01.432Z,11.53
2023-06-09T21:16:03.336Z,11.00
2023-06-09T21:18:05.672Z,13.20
2023-06-09T21:20:12.097Z,11.37
2023-06-09T21:22:15.568Z,12.00
2023-06-09T21:24:17.501Z,12.00
2023-06-09T21:26:19.369Z,11.93
2023-06-09T21:28:21.028Z,12.27
2023-06-09T21:30:25.090Z,11.00
2023-06-09T21:32:26.848Z,10.40
2023-06-09T21:34:28.504Z,11.97
2023-06-09T21:36:30.117Z,12.07
2023-06-09T21:38:33.408Z,12.03
2023-06-09T21:40:35.197Z,10.60
2023-06-09T21:42:36.961Z,12.00
2023-06-09T21:44:38.830Z,12.67
2023-06-09T21:46:40.510Z,13.03
2023-06-09T21:48:45.177Z,11.03
2023-06-09T21:50:47.199Z,11.10
2023-06-09T21:52:48.886Z,11.30
2023-06-09T21:54:52.017Z,11.20
2023-06-09T21:56:59.324Z,10.80
2023-06-09T21:59:00.996Z,12.97
2023-06-09T22:01:07.950Z,10.53
2023-06-09T22:03:11.184Z,13.20
2023-06-09T22:05:13.678Z,12.07
2023-06-09T22:07:15.329Z,11.70
2023-06-09T22:09:17.098Z,11.23
2023-06-09T22:11:20.074Z,11.17
2023-06-09T22:13:21.966Z,11.87
2023-06-09T22:15:26.504Z,10.70
2023-06-09T22:17:28.193Z,10.93
2023-06-09T22:19:29.879Z,10.63
2023-06-09T22:21:31.599Z,10.63
2023-06-09T22:23:33.282Z,10.47
2023-06-09T22:25:34.930Z,10.23
2023-06-09T22:27:38.023Z,11.40
2023-06-09T22:29:39.688Z,9.87
2023-06-09T22:31:41.409Z,10.40
2023-06-09T22:33:43.597Z,10.67
2023-06-09T22:35:47.541Z,11.07
2023-06-09T22:37:51.783Z,10.60
2023-06-09T22:39:53.455Z,11.20
2023-06-09T22:41:55.142Z,10.70
2023-06-09T22:43:58.441Z,11.10
2023-06-09T22:46:00.156Z,10.63
2023-06-09T22:48:02.051Z,11.47
2023-06-09T22:50:06.091Z,11.40
2023-06-09T22:52:08.293Z,11.10
2023-06-09T22:54:10.030Z,12.33
2023-06-09T22:56:13.192Z,11.23
2023-06-09T22:58:15.001Z,10.83
2023-06-09T23:00:19.001Z,10.80
2023-06-09T23:02:22.369Z,10.90
2023-06-09T23:04:24.193Z,10.90
2023-06-09T23:06:26.283Z,10.33
2023-06-09T23:08:28.026Z,11.00
2023-06-09T23:10:30.277Z,10.47
2023-06-09T23:12:32.719Z,10.63
2023-06-09T23:14:34.358Z,10.33
2023-06-09T23:16:37.603Z,10.77
2023-06-09T23:18:39.245Z,11.57
2023-06-09T23:20:41.006Z,10.80
2023-06-09T23:22:42.779Z,10.87
2023-06-09T23:24:44.562Z,10.67
2023-06-09T23:26:46.282Z,11.67
2023-06-09T23:28:48.006Z,11.10
2023-06-09T23:30:49.631Z,11.33
2023-06-09T23:32:55.882Z,10.77
2023-06-09T23:34:57.641Z,9.60
2023-06-09T23:36:59.414Z,10.03
2023-06-09T23:39:01.157Z,10.60
2023-06-09T23:41:02.850Z,10.07
2023-06-09T23:43:04.511Z,11.03
2023-06-09T23:45:10.603Z,10.00
2023-06-09T23:47:12.402Z,9.90
2023-06-09T23:49:15.604Z,9.20
2023-06-09T23:51:17.354Z,9.90
2023-06-09T23:53:20.789Z,9.17
2023-06-09T23:55:22.689Z,9.50
2023-06-09T23:57:25.023Z,10.60
2023-06-09T23:59:27.055Z,9.00
